Latest Coastal Weather Observations for Cape Sorell

IDT60701

Issued at 12:15 am EDT Friday 28 November 2014 (issued every 10 minutes, with the page automatically refreshed every 10 minutes)

About coastal observations | Map of coastal stations | Coastal observations for TAS | Marine services | Other Formats
Station Details ID: 097000 Name: CAPE SORELL Lat: -42.20 Lon: 145.17 Height: 19.3 m
Data from the previous 72 hours. | See also: Recent months at Cape Sorell
Date/Time
EDT
Temp

°C
Wind Pressure Rain
since 9am
mm
Weather Cloud Vis
km
Sea
Height
m
Swell
Dir
 
Speed
knots
Gust
knots
hPa Trend Height
m
Period
s
Dir
28/12:00am 10.9 SSE 7 10 1024.9 - 0.0 - - - - - - -
 
Date/Time
EDT
Temp

°C
Wind Pressure Rain
since 9am
mm
Weather Cloud Vis
km
Sea
Height
m
Swell
Dir
 
Speed
knots
Gust
knots
hPa Trend Height
m
Period
s
Dir
27/11:30pm 10.7 SSE 8 10 1025.1 - 0.0 - - - - - - -
27/11:00pm 11.4 S 11 14 1025.0 - 0.0 - - - - - - -
27/10:30pm 11.3 S 11 14 1025.2 - 0.0 - - - - - - -
27/10:00pm 11.4 S 12 15 1025.4 - 0.0 - - - - - - -
27/09:30pm 11.5 SSW 14 17 1025.3 - 0.0 - - - - - - -
27/09:00pm 11.6 SSW 14 17 1025.0 - 0.0 - - - - - - -
27/08:30pm 11.7 S 14 17 1024.7 - 0.0 - - - - - - -
27/08:00pm 12.3 SSW 15 18 1024.6 - 0.0 - - - - - - -
27/07:30pm 12.7 SSW 14 17 1024.7 - 0.0 - - - - - - -
27/07:00pm 13.2 S 13 16 1024.7 - 0.0 - - - - - - -
27/06:30pm 13.4 SSW 14 17 1024.8 - 0.0 - - - - - - -
27/06:00pm 14.0 SSW 15 17 1025.1 - 0.0 - - - - - - -
27/05:30pm 14.0 SSW 13 15 1025.1 - 0.0 - - - - - - -
27/05:00pm 14.8 SSW 14 16 1025.3 - 0.0 - - - - - - -
27/04:30pm 15.3 SSW 14 16 1025.5 - 0.0 - - - - - - -
27/04:00pm 14.8 SSW 13 16 1025.8 - 0.0 - - - - - - -
27/03:30pm 15.3 SSW 12 15 1026.1 - 0.0 - - - - - - -
27/03:00pm 15.1 SSW 13 16 1026.3 - 0.0 - - - - - - -
27/02:30pm 14.3 SSW 14 17 1026.3 - 0.0 - - - - - - -
27/02:00pm 13.9 S 10 13 1026.5 - 0.0 - - - - - - -
27/01:30pm 13.0 SSW 12 17 1026.6 - 0.0 - - - - - - -
27/01:00pm 14.3 SSW 11 14 1026.5 - 0.0 - - - - - - -
27/12:30pm 14.7 SSW 12 15 1026.4 - 0.0 - - - - - - -
27/12:00pm 14.4 SSW 11 14 1026.3 - 0.0 - - - - - - -
27/11:30am 13.1 SW 11 14 1026.4 - 0.0 - - - - - - -
27/11:00am 14.2 SSW 13 16 1026.4 - 0.0 - - - - - - -
27/10:30am 14.4 SW 10 12 1026.4 - 0.0 - - - - - - -
27/10:00am 13.4 SSW 12 14 1026.4 - 0.0 - - - - - - -
27/09:30am 12.8 SSW 13 15 1026.4 - 0.0 - - - - - - -
27/09:00am 12.4 SW 13 16 1026.3 - 0.0 - - - - - - -
27/08:30am 12.1 SW 12 15 1026.1 - 0.0 - - - - - - -
27/08:00am 11.9 SW 10 12 1025.9 - 0.0 - - - - - - -
27/07:30am 11.9 SSW 9 12 1025.4 - 0.0 - - - - - - -
27/07:00am 11.4 SSW 8 11 1025.0 - 0.0 - - - - - - -
27/06:30am 11.2 SSW 11 14 1024.8 - 0.0 - - - - - - -
27/06:00am 11.0 SSW 12 15 1024.6 - 0.0 - - - - - - -
27/05:30am 11.3 SSW 12 17 1024.4 - 0.0 - - - - - - -
27/05:00am 11.1 S 5 7 1024.2 - 0.0 - - - - - - -
27/04:30am 11.2 S 10 12 1024.0 - 0.0 - - - - - - -
27/04:00am 10.9 SW 10 13 1023.8 - 0.0 - - - - - - -
27/03:30am 11.1 SW 11 14 1023.7 - 0.0 - - - - - - -
27/03:00am 10.9 S 9 10 1023.8 - 0.0 - - - - - - -
27/02:30am 11.0 SSW 15 18 1023.6 - 0.0 - - - - - - -
27/02:00am 11.1 SSW 15 17 1023.5 - 0.0 - - - - - - -
27/01:30am 11.3 SSW 15 18 1023.5 - 0.0 - - - - - - -
27/01:00am 11.4 SSW 17 19 1023.5 - 0.0 - - - - - - -
27/12:30am 11.7 SSW 12 16 1023.8 - 0.0 - - - - - - -
27/12:00am 11.6 SSW 13 18 1023.7 - 0.0 - - - - - - -
 
Date/Time
EDT
Temp

°C
Wind Pressure Rain
since 9am
mm
Weather Cloud Vis
km
Sea
Height
m
Swell
Dir
 
Speed
knots
Gust
knots
hPa Trend Height
m
Period
s
Dir
26/11:30pm 11.7 SSW 15 18 1023.6 - 0.0 - - - - - - -
26/11:00pm 11.7 SSW 13 17 1023.6 - 0.0 - - - - - - -
26/10:30pm 11.8 SSW 15 17 1023.5 - 0.0 - - - - - - -
26/10:00pm 11.6 SW 14 18 1023.4 - 0.0 - - - - - - -
26/09:30pm 11.8 SSW 14 17 1023.1 - 0.0 - - - - - - -
26/09:00pm 11.8 SW 16 19 1022.7 - 0.0 - - - - - - -
26/08:30pm 11.6 SW 13 15 1022.6 - 0.0 - - - - - - -
26/08:00pm 11.8 SW 16 19 1022.4 - 0.0 - - - - - - -
26/07:30pm 12.1 SW 15 19 1021.9 - 0.0 - - - - - - -
26/07:00pm 12.4 SW 15 18 1021.8 - 0.0 - - - - - - -
26/06:30pm 12.6 SSW 15 20 1021.4 - 0.0 - - - - - - -
26/06:00pm 12.6 SW 17 20 1021.0 - 0.0 - - - - - - -
26/05:30pm 12.8 SSW 16 19 1020.8 - 0.0 - - - - - - -
26/05:00pm 13.3 SW 17 20 1020.8 - 0.0 - - - - - - -
26/04:30pm 14.6 SW 14 18 1020.6 - 0.0 - - - - - - -
26/04:00pm 13.8 SW 18 21 1020.4 - 0.0 - - - - - - -
26/03:30pm 14.4 SW 16 19 1020.3 - 0.0 - - - - - - -
26/03:00pm 13.5 SW 15 18 1020.2 - 0.0 - - - - - - -
26/02:30pm 14.6 SSW 16 20 1019.9 - 0.0 - - - - - - -
26/02:00pm 12.3 WSW 16 19 1019.8 - 0.0 - - - - - - -
26/01:30pm 13.9 SW 17 21 1019.5 - 0.0 - - - - - - -
26/01:00pm 14.1 SW 18 22 1019.4 - 0.0 - - - - - - -
26/12:30pm 13.9 SW 19 23 1019.1 - 0.0 - - - - - - -
26/12:00pm 13.4 SW 19 22 1018.7 - 0.0 - - - - - - -
26/11:30am 12.9 SW 16 19 1018.6 - 0.0 - - - - - - -
26/11:00am 11.3 SW 25 28 1018.1 - 0.0 - - - - - - -
26/10:51am 12.8 SW 17 28 1018.1 - 0.0 - - - - - - -
26/10:30am 13.2 SW 16 19 1018.1 - 0.0 - - - - - - -
26/10:00am 11.7 SW 19 25 1017.7 - 0.0 - - - - - - -
26/09:30am 11.2 SW 15 19 1017.7 - 0.0 - - - - - - -
26/09:00am 11.8 WSW 16 19 1017.3 - 3.6 - - - - - - -
26/08:30am 12.1 SW 17 22 1016.8 - 3.6 - - - - - - -
26/08:00am 11.8 SW 17 21 1016.4 - 3.6 - - - - - - -
26/07:30am 11.4 SW 19 24 1016.1 - 3.6 - - - - - - -
26/07:00am 11.0 WSW 19 26 1015.8 - 3.6 - - - - - - -
26/06:30am 10.9 WSW 15 20 1015.3 - 3.6 - - - - - - -
26/06:00am 11.1 WSW 16 22 1014.8 - 3.6 - - - - - - -
26/05:30am 11.3 SW 18 22 1014.6 - 3.6 - - - - - - -
26/05:00am 11.3 WSW 17 21 1014.1 - 3.6 - - - - - - -
26/04:30am 10.8 SW 16 23 1013.8 - 3.6 - - - - - - -
26/04:00am 11.0 WSW 17 23 1013.5 - 3.6 - - - - - - -
26/03:30am 11.2 WSW 18 21 1013.2 - 3.6 - - - - - - -
26/03:00am 11.0 WSW 16 20 1013.1 - 3.6 Recent precip. - - - - - -
26/02:30am 10.7 WSW 22 27 1013.0 - 3.4 - - - - - - -
26/02:00am 11.6 WSW 20 26 1013.0 - 2.2 - - - - - - -
26/01:56am 12.6 WSW 20 26 1012.9 - 2.0 - - - - - - -
26/01:30am 12.3 WNW 22 30 1012.8 - 1.8 - - - - - - -
26/01:00am 12.2 WNW 22 27 1013.1 - 1.8 - - - - - - -
26/12:30am 12.1 WNW 21 27 1013.5 - 1.8 - - - - - - -
26/12:00am 11.9 WNW 21 29 1013.6 - 1.6 Recent precip. - - - - - -
 
Date/Time
EDT
Temp

°C
Wind Pressure Rain
since 9am
mm
Weather Cloud Vis
km
Sea
Height
m
Swell
Dir
 
Speed
knots
Gust
knots
hPa Trend Height
m
Period
s
Dir
25/11:51pm 11.9 WNW 18 29 1013.8 - 1.6 - - - - - - -
25/11:30pm 11.7 WNW 20 27 1014.0 - 1.6 - - - - - - -
25/11:06pm 11.6 WNW 21 32 1013.8 - 1.6 - - - - - - -
25/11:00pm 11.6 WNW 19 25 1014.0 - 1.4 - - - - - - -
25/10:30pm 11.6 WNW 22 30 1014.4 - 1.0 - - - - - - -
25/10:04pm 12.0 WNW 16 27 1014.4 - 0.8 - - - - - - -
25/10:00pm 12.1 WNW 15 20 1014.5 - 0.6 - - - - - - -
25/09:30pm 12.4 WNW 17 24 1014.5 - 0.6 - - - - - - -
25/09:00pm 12.4 WNW 17 24 1014.4 - 0.6 - - - - - - -
25/08:30pm 12.2 W 17 22 1014.4 - 0.6 - - - - - - -
25/08:00pm 11.6 WNW 18 24 1014.4 - 0.6 - - - - - - -
25/07:30pm 12.5 W 14 21 1014.2 - 0.6 - - - - - - -
25/07:00pm 12.6 W 14 20 1014.1 - 0.6 - - - - - - -
25/06:30pm 12.6 W 14 21 1013.9 - 0.6 - - - - - - -
25/06:00pm 12.4 W 14 20 1013.7 - 0.6 - - - - - - -
25/05:30pm 11.5 WNW 14 19 1014.0 - 0.6 - - - - - - -
25/05:00pm 12.4 WSW 18 23 1013.6 - 0.6 - - - - - - -
25/04:30pm 13.1 W 18 23 1013.4 - 0.6 - - - - - - -
25/04:00pm 14.1 W 15 21 1013.4 - 0.6 - - - - - - -
25/03:30pm 13.9 W 19 25 1013.0 - 0.6 - - - - - - -
25/03:00pm 13.5 W 19 26 1013.0 - 0.6 - - - - - - -
25/02:30pm 13.7 W 16 23 1012.8 - 0.6 - - - - - - -
25/02:00pm 12.5 WSW 21 27 1012.6 - 0.6 - - - - - - -
25/01:30pm 13.0 W 19 29 1012.4 - 0.6 - - - - - - -
25/01:23pm 14.0 W 17 29 1012.1 - 0.6 - - - - - - -
25/01:00pm 13.0 WSW 17 22 1012.0 - 0.6 - - - - - - -
25/12:30pm 11.8 WSW 21 32 1011.6 - 0.6 - - - - - - -
25/12:26pm 12.9 WSW 17 32 1011.7 - 0.6 - - - - - - -
25/12:00pm 12.6 WSW 18 23 1011.8 - 0.6 Recent precip. - - - - - -
25/11:30am 12.7 W 16 22 1011.6 - 0.2 - - - - - - -
25/11:00am 12.9 WSW 13 17 1011.6 - 0.2 - - - - - - -
25/10:30am 12.6 WSW 11 15 1011.6 - 0.2 - - - - - - -
25/10:00am 12.5 WSW 18 25 1011.2 - 0.0 - - - - - - -
25/09:30am 13.5 WSW 17 21 1010.8 - 0.0 - - - - - - -
25/09:00am 12.8 WSW 18 23 1010.3 - 12.6 - - - - - - -
25/08:30am 12.5 WSW 20 25 1009.8 - 12.6 - - - - - - -
25/08:00am 12.3 WSW 19 24 1009.5 - 12.6 - - - - - - -
25/07:30am 12.0 WSW 19 23 1009.0 - 12.6 - - - - - - -
25/07:00am 12.1 WSW 22 27 1008.5 - 12.6 - - - - - - -
25/06:30am 11.8 WSW 23 27 1008.1 - 12.6 - - - - - - -
25/06:00am 11.7 WSW 22 28 1007.7 - 12.6 - - - - - - -
25/05:30am 11.7 WSW 25 29 1006.8 - 12.6 - - - - - - -
25/05:00am 11.6 WSW 24 28 1006.6 - 12.6 - - - - - - -
25/04:30am 11.3 WSW 23 29 1006.0 - 12.6 - - - - - - -
25/04:00am 11.0 WSW 21 29 1005.6 - 12.6 - - - - - - -
25/03:48am 11.6 W 19 29 1005.7 - 12.6 - - - - - - -
25/03:30am 11.5 W 18 24 1005.6 - 12.6 - - - - - - -
25/03:00am 10.9 WSW 22 30 1005.7 - 12.6 Rain - - - - - -
25/02:30am 11.5 W 16 22 1005.6 - 12.4 - - - - - - -
25/02:00am 11.4 W 19 25 1005.5 - 12.4 - - - - - - -
25/01:36am 11.5 W 16 27 1005.2 - 12.0 - - - - - - -
25/01:30am 11.7 W 16 23 1005.4 - 12.0 - - - - - - -
25/01:00am 11.2 W 20 27 1005.3 - 12.0 - - - - - - -
25/12:47am 10.9 W 21 28 1005.1 - 12.0 - - - - - - -
25/12:40am 11.5 WNW 17 28 1005.4 - 10.0 - - - - - - -
25/12:30am 11.2 WNW 17 23 1005.4 - 9.8 - - - - - - -

Other Formats:

Comma delimited format used in spreadsheet applications
http://www.bom.gov.au/fwo/IDT60701/IDT60701.94974.axf

JavaScript Object Notation format (JSON) in row-major order
http://www.bom.gov.au/fwo/IDT60701/IDT60701.94974.json